Time;durP1;ratioP1;P1;durP2;ratioP2;P2;SDS_P1;SDS_P2;PMS_P1;PMS_P2;Temp;Humidity;BMP_temperature;BMP_pressure;BME280_temperature;BME280_humidity;BME280_pressure;Samples;Min_cycle;Max_cycle;Signal;HPM_P1;HPM_P2
2023/05/09 00:01:57;;;;;;;;;;;;;;;20.00;58.88;100734.94;4962851;28;6772;-76
2023/05/09 00:04:23;;;;;;;;;;;;;;;20.01;58.84;100735.78;4951792;28;6812;-77
2023/05/09 00:06:50;;;;;;;;;;;;;;;20.00;58.98;100726.25;4965034;28;6784;-77
2023/05/09 00:09:16;;;;;;;;;;;;;;;19.98;59.24;100727.09;4966414;28;6796;-77
2023/05/09 00:11:42;;;;;;;;;;;;;;;19.95;58.86;100720.97;4967826;28;6796;-77
2023/05/09 00:14:09;;;;;;;;;;;;;;;19.93;59.34;100715.75;4952752;28;7130;-75
2023/05/09 00:16:35;;;;;;;;;;;;;;;19.95;59.75;100710.56;4969661;28;7030;-76
2023/05/09 00:19:03;;;;;;;;;;;;;;;19.96;59.48;100709.72;4956276;28;9159;-77
2023/05/09 00:21:29;;;;;;;;;;;;;;;19.98;59.34;100723.59;4952604;28;6880;-76
2023/05/09 00:23:55;;;;;;;;;;;;;;;19.98;59.36;100721.00;4989304;28;7268;-77
2023/05/09 00:26:21;;;;;;;;;;;;;;;19.95;59.07;100710.56;4986041;28;6988;-76
2023/05/09 00:28:47;;;;;;;;;;;;;;;19.93;59.10;100705.34;4954842;28;6976;-76
2023/05/09 00:31:13;;;;;;;;;;;;;;;19.92;59.39;100710.50;4972957;28;7212;-77
2023/05/09 00:33:39;;;;;;;;;;;;;;;19.90;59.35;100709.63;4954589;28;7973;-76
2023/05/09 00:36:06;;;;;;;;;;;;;;;19.87;59.28;100714.75;4971716;28;6764;-76
2023/05/09 00:38:32;;;;;;;;;;;;;;;19.83;59.48;100709.50;4970954;28;7220;-77
2023/05/09 00:40:57;;;;;;;;;;;;;;;19.78;59.77;100713.75;4985159;28;6828;-77
2023/05/09 00:43:23;;;;;;;;;;;;;;;19.77;59.82;100701.59;4971745;28;7142;-77
2023/05/09 00:45:49;;;;;;;;;;;;;;;19.78;59.94;100699.91;4968733;28;6947;-77
2023/05/09 00:48:15;;;;;;;;;;;;;;;19.79;60.16;100699.91;4984883;28;6804;-76
2023/05/09 00:50:41;;;;;;;;;;;;;;;19.79;60.09;100697.31;4955912;28;6815;-75
2023/05/09 00:53:09;;;;;;;;;;;;;;;19.80;59.88;100696.47;4968472;28;7656;-77
2023/05/09 00:55:34;;;;;;;;;;;;;;;19.81;60.25;100689.53;4985492;28;7255;-76
2023/05/09 00:58:02;;;;;;;;;;;;;;;19.80;59.79;100691.28;4985053;28;8488;-76
2023/05/09 01:00:27;;;;;;;;;;;;;;;19.80;60.22;100682.59;4966410;28;6797;-77
2023/05/09 01:02:55;;;;;;;;;;;;;;;19.79;59.89;100684.28;4947658;28;6796;-77
2023/05/09 01:05:32;;;;;;;;;;;;;;;19.80;60.15;100680.88;4964664;28;8311;-76
2023/05/09 01:08:33;;;;;;;;;;;;;;;19.80;60.26;100670.47;4956562;28;6852;-77
2023/05/09 01:11:34;;;;;;;;;;;;;;;19.82;60.27;100673.97;4966844;28;6876;-77
2023/05/09 01:14:42;;;;;;;;;;;;;;;19.82;60.09;100668.75;4956676;28;7074;-77
2023/05/09 01:17:48;;;;;;;;;;;;;;;19.82;60.18;100662.66;4959460;28;7130;-77
2023/05/09 01:20:46;;;;;;;;;;;;;;;19.79;60.04;100663.50;4973405;28;7005;-77
2023/05/09 01:23:38;;;;;;;;;;;;;;;19.77;60.01;100660.00;4956603;28;7050;-77
2023/05/09 01:26:34;;;;;;;;;;;;;;;19.78;59.87;100660.91;4969715;28;7203;-77
2023/05/09 01:29:38;;;;;;;;;;;;;;;19.77;59.85;100657.41;4990893;28;7267;-77
2023/05/09 01:32:16;;;;;;;;;;;;;;;19.78;60.24;100650.50;4970989;28;7306;-77
2023/05/09 01:34:44;;;;;;;;;;;;;;;19.81;60.16;100650.53;4969975;28;6800;-77
2023/05/09 01:37:14;;;;;;;;;;;;;;;19.85;60.23;100645.38;4954725;28;7504;-76
2023/05/09 01:39:45;;;;;;;;;;;;;;;19.88;59.83;100638.47;4970628;28;7363;-76
2023/05/09 01:42:14;;;;;;;;;;;;;;;19.92;60.06;100642.88;4960387;28;6946;-78
2023/05/09 01:44:43;;;;;;;;;;;;;;;19.92;59.81;100635.94;4958531;28;7445;-77
2023/05/09 01:47:11;;;;;;;;;;;;;;;19.94;59.80;100638.59;4975135;28;6812;-77
2023/05/09 01:49:40;;;;;;;;;;;;;;;19.93;59.42;100637.72;4956228;28;6989;-76
2023/05/09 01:52:15;;;;;;;;;;;;;;;19.92;59.59;100637.69;4989763;28;6872;-76
2023/05/09 01:54:44;;;;;;;;;;;;;;;19.92;59.89;100637.69;4970530;28;6800;-77
2023/05/09 01:57:11;;;;;;;;;;;;;;;19.91;59.55;100628.13;4972354;28;7418;-74
2023/05/09 01:59:43;;;;;;;;;;;;;;;19.92;60.05;100625.53;4987989;28;6784;-77
2023/05/09 02:02:11;;;;;;;;;;;;;;;19.93;60.02;100624.69;4967001;28;7276;-75
2023/05/09 02:04:40;;;;;;;;;;;;;;;19.96;59.91;100618.69;4968131;28;7139;-77
2023/05/09 02:07:08;;;;;;;;;;;;;;;19.96;59.83;100619.56;4956935;28;6841;-77
2023/05/09 02:09:34;;;;;;;;;;;;;;;19.97;59.60;100620.41;4959119;28;6797;-77
2023/05/09 02:12:00;;;;;;;;;;;;;;;19.96;59.78;100618.69;4954136;28;6915;-77
2023/05/09 02:14:25;;;;;;;;;;;;;;;19.94;59.41;100620.38;4975222;28;7263;-77
2023/05/09 02:16:51;;;;;;;;;;;;;;;19.91;59.51;100617.72;4959468;28;6776;-77
2023/05/09 02:19:17;;;;;;;;;;;;;;;19.88;59.67;100617.66;4964836;28;6868;-75
2023/05/09 02:21:43;;;;;;;;;;;;;;;19.85;59.76;100615.91;4972205;28;6765;-77
2023/05/09 02:24:09;;;;;;;;;;;;;;;19.81;60.05;100617.59;4972958;28;6999;-76
2023/05/09 02:26:35;;;;;;;;;;;;;;;19.80;59.56;100614.97;4988720;28;8595;-77
2023/05/09 02:29:03;;;;;;;;;;;;;;;19.79;59.88;100611.47;4989414;28;6787;-76
2023/05/09 02:31:30;;;;;;;;;;;;;;;19.77;59.88;100613.19;4956741;28;6981;-75
2023/05/09 02:33:58;;;;;;;;;;;;;;;19.75;59.87;100619.22;4969389;28;6804;-76
2023/05/09 02:36:24;;;;;;;;;;;;;;;19.73;59.76;100621.81;4972309;28;6993;-75
2023/05/09 02:38:50;;;;;;;;;;;;;;;19.72;60.00;100622.69;4972822;28;6959;-75
2023/05/09 02:41:16;;;;;;;;;;;;;;;19.74;59.76;100626.16;4958606;28;6784;-75
2023/05/09 02:43:42;;;;;;;;;;;;;;;19.76;60.14;100616.66;4942512;28;7446;-75
2023/05/09 02:46:09;;;;;;;;;;;;;;;19.79;60.49;100611.47;4985864;28;6781;-75
2023/05/09 02:48:35;;;;;;;;;;;;;;;19.83;60.18;100609.81;4971188;28;6856;-75
2023/05/09 02:51:01;;;;;;;;;;;;;;;19.86;59.93;100607.25;4955865;28;6908;-75
2023/05/09 02:53:27;;;;;;;;;;;;;;;19.91;59.69;100609.91;4955196;28;7267;-75
2023/05/09 02:55:53;;;;;;;;;;;;;;;19.93;59.90;100610.81;4984797;28;6767;-75
2023/05/09 02:58:20;;;;;;;;;;;;;;;19.94;60.08;100608.28;4957252;28;6797;-75
2023/05/09 03:00:45;;;;;;;;;;;;;;;19.94;60.10;100602.19;4968909;28;6994;-75
2023/05/09 03:03:11;;;;;;;;;;;;;;;19.94;60.39;100604.78;4987609;28;6756;-75
2023/05/09 03:05:37;;;;;;;;;;;;;;;19.94;60.04;100600.47;4966812;28;6776;-75
2023/05/09 03:08:02;;;;;;;;;;;;;;;19.92;60.04;100601.25;4951553;28;7264;-75
2023/05/09 03:10:28;;;;;;;;;;;;;;;19.91;60.21;100596.91;4953495;28;7294;-75
2023/05/09 03:12:54;;;;;;;;;;;;;;;19.90;60.25;100589.97;4954979;28;6780;-74
2023/05/09 03:15:20;;;;;;;;;;;;;;;19.89;60.08;100586.47;4968516;28;7223;-75
2023/05/09 03:17:46;;;;;;;;;;;;;;;19.88;59.99;100584.75;4987814;28;6991;-75
2023/05/09 03:20:12;;;;;;;;;;;;;;;19.86;60.19;100578.66;4969509;28;6804;-75
2023/05/09 03:22:38;;;;;;;;;;;;;;;19.89;60.21;100580.41;4964393;28;6776;-75
2023/05/09 03:25:05;;;;;;;;;;;;;;;19.88;59.99;100579.53;4970409;28;6772;-75
2023/05/09 03:27:31;;;;;;;;;;;;;;;19.88;60.40;100579.53;4966652;28;6792;-74
2023/05/09 03:29:57;;;;;;;;;;;;;;;19.85;59.79;100569.13;4983794;28;6780;-73
2023/05/09 03:32:22;;;;;;;;;;;;;;;19.82;59.90;100575.13;4955483;28;6787;-74
2023/05/09 03:34:48;;;;;;;;;;;;;;;19.77;59.81;100566.38;4950003;28;6792;-73
2023/05/09 03:37:14;;;;;;;;;;;;;;;19.73;59.60;100564.63;4950500;28;6944;-75
2023/05/09 03:39:39;;;;;;;;;;;;;;;19.69;59.39;100555.00;4969265;28;6772;-74
2023/05/09 03:42:05;;;;;;;;;;;;;;;19.67;59.58;100564.53;4985433;28;6787;-73
2023/05/09 03:44:31;;;;;;;;;;;;;;;19.64;59.94;100559.31;4946785;28;7226;-74
2023/05/09 03:46:56;;;;;;;;;;;;;;;19.60;60.01;100552.28;4963942;28;6871;-72
2023/05/09 03:49:22;;;;;;;;;;;;;;;19.58;60.09;100552.28;4966136;28;6772;-75
2023/05/09 03:51:47;;;;;;;;;;;;;;;19.55;59.63;100545.31;4949670;28;7284;-74
2023/05/09 03:54:13;;;;;;;;;;;;;;;19.53;59.80;100552.22;4959749;28;7180;-73
2023/05/09 03:56:40;;;;;;;;;;;;;;;19.52;59.95;100550.50;4960299;28;7419;-73
2023/05/09 03:59:05;;;;;;;;;;;;;;;19.49;60.23;100552.16;4946426;28;7097;-74
2023/05/09 04:01:31;;;;;;;;;;;;;;;19.47;59.98;100549.53;4952753;28;6982;-72
2023/05/09 04:03:57;;;;;;;;;;;;;;;19.46;60.23;100545.19;4960092;28;6788;-73
2023/05/09 04:06:23;;;;;;;;;;;;;;;19.46;60.33;100544.31;4979865;28;7205;-76
2023/05/09 04:08:48;;;;;;;;;;;;;;;19.42;60.03;100540.81;4945959;28;7070;-74
2023/05/09 04:11:14;;;;;;;;;;;;;;;19.39;60.08;100551.16;4960286;28;7193;-75
2023/05/09 04:13:40;;;;;;;;;;;;;;;19.37;60.30;100545.97;4962031;28;6824;-75
2023/05/09 04:16:05;;;;;;;;;;;;;;;19.36;60.51;100545.91;4969915;28;6768;-73
2023/05/09 04:18:31;;;;;;;;;;;;;;;19.34;60.47;100543.28;4964809;28;7001;-76
2023/05/09 04:20:57;;;;;;;;;;;;;;;19.36;60.46;100546.81;4951136;28;6856;-74
2023/05/09 04:23:23;;;;;;;;;;;;;;;19.40;60.46;100546.00;4966147;28;6764;-74
2023/05/09 04:25:50;;;;;;;;;;;;;;;19.44;60.63;100541.72;4967299;28;6801;-73
2023/05/09 04:28:16;;;;;;;;;;;;;;;19.48;60.94;100550.44;4978897;28;7069;-73
2023/05/09 04:30:42;;;;;;;;;;;;;;;19.51;60.74;100551.34;4982368;28;7246;-74
2023/05/09 04:33:07;;;;;;;;;;;;;;;19.54;60.71;100547.88;4965277;28;7172;-75
2023/05/09 04:35:33;;;;;;;;;;;;;;;19.56;61.06;100544.47;4955363;28;6764;-73
2023/05/09 04:37:59;;;;;;;;;;;;;;;19.59;61.22;100537.56;4959981;28;8585;-73
2023/05/09 04:40:25;;;;;;;;;;;;;;;19.64;61.07;100534.16;4950021;28;8560;-74
2023/05/09 04:42:50;;;;;;;;;;;;;;;19.69;61.11;100531.63;4956263;28;6959;-74
2023/05/09 04:45:16;;;;;;;;;;;;;;;19.74;61.01;100535.16;4984612;28;6832;-73
2023/05/09 04:47:42;;;;;;;;;;;;;;;19.77;60.83;100530.00;4957263;28;6799;-74
2023/05/09 04:50:08;;;;;;;;;;;;;;;19.80;60.61;100530.03;4968206;28;6780;-74
2023/05/09 04:52:34;;;;;;;;;;;;;;;19.80;61.17;100519.66;4967445;28;6784;-74
2023/05/09 04:55:00;;;;;;;;;;;;;;;19.81;60.70;100523.09;4970864;28;6848;-74
2023/05/09 04:57:26;;;;;;;;;;;;;;;19.82;60.69;100519.63;4977713;28;6776;-75
2023/05/09 04:59:52;;;;;;;;;;;;;;;19.83;60.89;100519.66;4983984;28;6788;-73
2023/05/09 05:02:18;;;;;;;;;;;;;;;19.84;60.56;100521.41;4979016;28;7032;-74
2023/05/09 05:04:43;;;;;;;;;;;;;;;19.89;61.26;100517.97;4967061;28;6983;-75
2023/05/09 05:07:09;;;;;;;;;;;;;;;19.92;61.00;100513.69;4985954;28;6986;-72
2023/05/09 05:09:35;;;;;;;;;;;;;;;19.96;60.86;100512.03;4969245;28;6776;-75
2023/05/09 05:12:00;;;;;;;;;;;;;;;19.98;60.85;100503.41;4970867;28;7241;-72
2023/05/09 05:14:26;;;;;;;;;;;;;;;20.02;61.30;100503.41;4959615;28;9118;-74
2023/05/09 05:16:52;;;;;;;;;;;;;;;20.06;61.24;100497.41;4985127;28;7125;-74
2023/05/09 05:19:17;;;;;;;;;;;;;;;20.11;61.27;100495.72;4968202;28;6780;-74
2023/05/09 05:21:43;;;;;;;;;;;;;;;20.18;61.35;100488.84;4985600;28;6792;-74
2023/05/09 05:24:09;;;;;;;;;;;;;;;20.23;61.25;100492.38;4955260;28;6965;-72
2023/05/09 05:26:34;;;;;;;;;;;;;;;20.30;61.34;100486.38;4968829;28;7214;-74
2023/05/09 05:29:00;;;;;;;;;;;;;;;20.40;61.38;100485.59;4973620;28;6978;-74
2023/05/09 05:31:25;;;;;;;;;;;;;;;20.50;61.34;100481.31;4950115;28;6808;-75
2023/05/09 05:33:51;;;;;;;;;;;;;;;20.61;61.40;100473.59;4966711;28;6806;-75
2023/05/09 05:36:17;;;;;;;;;;;;;;;20.69;61.49;100468.44;4955892;28;6804;-73
2023/05/09 05:38:42;;;;;;;;;;;;;;;20.79;61.05;100464.19;4969042;28;6756;-73
2023/05/09 05:41:11;;;;;;;;;;;;;;;20.87;61.03;100459.06;4984579;28;7167;-73
2023/05/09 05:43:36;;;;;;;;;;;;;;;20.96;61.20;100461.72;4958642;28;6872;-74
2023/05/09 05:46:03;;;;;;;;;;;;;;;21.04;60.96;100457.44;4968025;28;7003;-74
2023/05/09 05:48:29;;;;;;;;;;;;;;;21.10;60.76;100453.97;4983769;28;7266;-73
2023/05/09 05:50:54;;;;;;;;;;;;;;;21.15;60.35;100462.72;4948163;28;7037;-74
2023/05/09 05:53:20;;;;;;;;;;;;;;;21.18;60.45;100459.22;4966294;28;6784;-74
2023/05/09 05:55:46;;;;;;;;;;;;;;;21.18;59.89;100460.09;4966622;28;6776;-73
2023/05/09 05:58:11;;;;;;;;;;;;;;;21.17;59.94;100458.38;4972669;28;6980;-72
2023/05/09 06:00:37;;;;;;;;;;;;;;;21.15;59.55;100447.06;4987940;28;7010;-73
2023/05/09 06:03:03;;;;;;;;;;;;;;;21.13;59.80;100447.94;4987564;28;6962;-75
2023/05/09 06:05:28;;;;;;;;;;;;;;;21.12;59.39;100439.22;4990133;28;6764;-75
2023/05/09 06:07:54;;;;;;;;;;;;;;;21.11;59.56;100440.09;4955020;28;6816;-73
2023/05/09 06:10:20;;;;;;;;;;;;;;;21.09;59.34;100428.78;4983758;28;6772;-73
2023/05/09 06:12:45;;;;;;;;;;;;;;;21.11;59.53;100434.03;4967080;28;6964;-74
2023/05/09 06:15:11;;;;;;;;;;;;;;;21.15;59.43;100427.94;4958034;28;6784;-75
2023/05/09 06:17:36;;;;;;;;;;;;;;;21.19;59.20;100429.69;4957243;28;7463;-74
2023/05/09 06:20:02;;;;;;;;;;;;;;;21.25;59.47;100418.44;4983011;28;6776;-74
2023/05/09 06:22:28;;;;;;;;;;;;;;;21.35;59.45;100415.00;4956220;28;8471;-73
2023/05/09 06:24:54;;;;;;;;;;;;;;;21.48;59.56;100405.47;4983320;28;6772;-73
2023/05/09 06:27:19;;;;;;;;;;;;;;;21.63;59.49;100402.91;4972670;28;6788;-74
2023/05/09 06:29:45;;;;;;;;;;;;;;;21.78;59.22;100402.09;4985058;28;7270;-76
2023/05/09 06:32:11;;;;;;;;;;;;;;;21.97;59.08;100399.53;4970668;28;6851;-73
2023/05/09 06:34:36;;;;;;;;;;;;;;;22.14;58.79;100396.91;4941454;28;6961;-76
2023/05/09 06:37:02;;;;;;;;;;;;;;;22.28;58.20;100402.13;4971963;28;7113;-75
2023/05/09 06:39:27;;;;;;;;;;;;;;;22.38;57.84;100399.50;4957613;28;6760;-74
2023/05/09 06:41:53;;;;;;;;;;;;;;;22.45;57.49;100396.91;4972540;28;6830;-73
2023/05/09 06:44:19;;;;;;;;;;;;;;;22.55;57.22;100387.34;4971847;28;6760;-73
2023/05/09 06:46:44;;;;;;;;;;;;;;;22.64;56.46;100385.59;4955026;28;6764;-73
2023/05/09 06:49:12;;;;;;;;;;;;;;;22.73;56.93;100382.97;4963465;28;6839;-76
2023/05/09 06:51:38;;;;;;;;;;;;;;;22.84;56.18;100381.19;4984217;28;6872;-74
2023/05/09 06:54:03;;;;;;;;;;;;;;;22.92;55.80;100382.91;4957513;28;7007;-75
2023/05/09 06:56:30;;;;;;;;;;;;;;;22.96;55.60;100377.66;4971698;28;7216;-73
2023/05/09 06:58:55;;;;;;;;;;;;;;;23.01;55.75;100380.25;4980193;28;7220;-73
2023/05/09 07:01:21;;;;;;;;;;;;;;;23.03;55.09;100368.06;4980833;28;6791;-72
2023/05/09 07:03:47;;;;;;;;;;;;;;;23.10;55.17;100368.88;4984864;28;6784;-74
2023/05/09 07:06:12;;;;;;;;;;;;;;;23.17;55.07;100366.22;4969766;28;6943;-73
2023/05/09 07:08:38;;;;;;;;;;;;;;;23.21;54.96;100361.00;4950263;28;6765;-73
2023/05/09 07:11:04;;;;;;;;;;;;;;;23.25;54.72;100354.88;4950712;28;6861;-73
2023/05/09 07:13:29;;;;;;;;;;;;;;;23.30;54.29;100353.16;4978450;28;7255;-73
2023/05/09 07:15:55;;;;;;;;;;;;;;;23.35;54.27;100355.75;4968682;28;7374;-74
2023/05/09 07:18:21;;;;;;;;;;;;;;;23.41;53.97;100353.06;4950829;28;7007;-73
2023/05/09 07:20:47;;;;;;;;;;;;;;;23.44;54.09;100348.69;4963663;28;6856;-72
2023/05/09 07:23:12;;;;;;;;;;;;;;;23.52;53.39;100345.16;4949604;28;6915;-74
2023/05/09 07:25:38;;;;;;;;;;;;;;;23.63;53.60;100330.25;4982031;28;7246;-74
2023/05/09 07:28:04;;;;;;;;;;;;;;;23.78;53.79;100331.03;4981558;28;6780;-74
2023/05/09 07:30:29;;;;;;;;;;;;;;;23.89;52.90;100334.44;4953675;28;6920;-73
2023/05/09 07:32:55;;;;;;;;;;;;;;;23.99;53.04;100328.22;4953199;28;7523;-74
2023/05/09 07:35:21;;;;;;;;;;;;;;;24.10;52.39;100322.06;4952558;28;6955;-74
2023/05/09 07:37:46;;;;;;;;;;;;;;;24.25;53.06;100327.16;4952851;28;7047;-74
2023/05/09 07:40:12;;;;;;;;;;;;;;;24.41;52.60;100324.38;4982936;28;6955;-73
2023/05/09 07:42:38;;;;;;;;;;;;;;;24.61;51.94;100323.28;4981380;28;6884;-72
2023/05/09 07:45:05;;;;;;;;;;;;;;;24.75;51.87;100326.63;4982066;28;7316;-75
2023/05/09 07:47:31;;;;;;;;;;;;;;;24.91;51.45;100329.06;4969652;28;7122;-74
2023/05/09 07:49:57;;;;;;;;;;;;;;;25.07;51.36;100317.50;4958115;28;7186;-72
2023/05/09 07:52:23;;;;;;;;;;;;;;;25.24;50.84;100324.28;4965115;28;6764;-75
2023/05/09 07:54:48;;;;;;;;;;;;;;;25.37;50.02;100310.06;4984314;28;8398;-74
2023/05/09 07:57:15;;;;;;;;;;;;;;;25.45;49.54;100307.34;4966766;28;6773;-74
2023/05/09 07:59:41;;;;;;;;;;;;;;;25.52;49.35;100302.91;4983292;28;7288;-74
2023/05/09 08:02:07;;;;;;;;;;;;;;;25.58;48.80;100294.06;4965869;28;7128;-74
2023/05/09 08:04:36;;;;;;;;;;;;;;;25.57;48.33;100301.06;4985549;28;7225;-74
2023/05/09 08:07:03;;;;;;;;;;;;;;;25.52;47.82;100297.66;4963178;28;6816;-73
2023/05/09 08:09:29;;;;;;;;;;;;;;;25.48;47.85;100285.44;4982358;28;6962;-74
2023/05/09 08:11:55;;;;;;;;;;;;;;;25.48;47.78;100281.06;4954899;28;6954;-76
2023/05/09 08:14:20;;;;;;;;;;;;;;;25.54;48.15;100287.13;4945614;28;6980;-74
2023/05/09 08:16:46;;;;;;;;;;;;;;;25.61;48.05;100281.78;4964710;28;6776;-74
2023/05/09 08:19:12;;;;;;;;;;;;;;;25.68;47.89;100276.41;4971235;28;6999;-74
2023/05/09 08:21:37;;;;;;;;;;;;;;;25.71;47.51;100269.34;4951734;28;6776;-75
2023/05/09 08:24:04;;;;;;;;;;;;;;;25.75;47.52;100268.44;4965829;28;6964;-73
2023/05/09 08:26:30;;;;;;;;;;;;;;;25.77;47.13;100266.63;4966008;28;7124;-73
2023/05/09 08:28:56;;;;;;;;;;;;;;;25.81;47.05;100261.31;4951008;28;6938;-74
2023/05/09 08:31:21;;;;;;;;;;;;;;;25.82;46.74;100253.44;4985339;28;6889;-76
2023/05/09 08:33:47;;;;;;;;;;;;;;;25.85;46.52;100258.63;4949190;28;7054;-73
2023/05/09 08:36:13;;;;;;;;;;;;;;;25.87;46.66;100248.94;4968717;28;6860;-73
2023/05/09 08:38:39;;;;;;;;;;;;;;;25.88;46.17;100255.06;4970041;28;6992;-74
2023/05/09 08:41:05;;;;;;;;;;;;;;;25.86;45.61;100247.22;4970786;28;6822;-73
2023/05/09 08:43:33;;;;;;;;;;;;;;;25.95;46.18;100247.94;4968854;28;6933;-73
2023/05/09 08:46:05;;;;;;;;;;;;;;;26.11;45.95;100246.78;4971502;28;7176;-74
2023/05/09 08:48:36;;;;;;;;;;;;;;;26.31;46.35;100248.19;4954158;28;7004;-74
2023/05/09 08:51:05;;;;;;;;;;;;;;;26.54;45.85;100244.19;4963922;28;7166;-74
2023/05/09 08:53:32;;;;;;;;;;;;;;;26.70;45.05;100227.22;4981496;28;6856;-73
2023/05/09 08:56:02;;;;;;;;;;;;;;;26.78;44.63;100234.06;4983183;28;7252;-73
2023/05/09 08:58:30;;;;;;;;;;;;;;;26.78;44.08;100228.81;4982525;28;6804;-74
2023/05/09 09:00:57;;;;;;;;;;;;;;;26.65;43.31;100228.22;4951422;28;6796;-73
2023/05/09 09:03:26;;;;;;;;;;;;;;;26.52;43.84;100224.97;4959973;28;6807;-74
2023/05/09 09:05:53;;;;;;;;;;;;;;;26.41;43.64;100233.06;4969108;28;7253;-74
2023/05/09 09:08:21;;;;;;;;;;;;;;;26.33;43.77;100222.75;4980672;28;7101;-75
2023/05/09 09:10:47;;;;;;;;;;;;;;;26.26;44.01;100227.25;4963884;28;7127;-73
2023/05/09 09:13:16;;;;;;;;;;;;;;;26.24;44.04;100226.44;4987124;28;7249;-76
2023/05/09 09:15:45;;;;;;;;;;;;;;;26.23;43.96;100218.56;4952707;28;6797;-73
2023/05/09 09:18:24;;;;;;;;;;;;;;;26.20;44.00;100216.88;4952604;28;6998;-73
2023/05/09 09:21:04;;;;;;;;;;;;;;;26.27;44.11;100207.97;4970106;28;6804;-72
2023/05/09 09:23:32;;;;;;;;;;;;;;;26.34;44.05;100208.69;4958719;28;6808;-76
2023/05/09 09:26:00;;;;;;;;;;;;;;;26.43;44.09;100200.63;4979422;28;7289;-75
2023/05/09 09:28:27;;;;;;;;;;;;;;;26.50;43.66;100197.88;4951505;28;7139;-74
2023/05/09 09:30:52;;;;;;;;;;;;;;;26.52;43.54;100196.09;4952628;28;6998;-74
2023/05/09 09:33:24;;;;;;;;;;;;;;;26.52;43.00;100190.81;4970523;28;6891;-73
2023/05/09 09:35:52;;;;;;;;;;;;;;;26.57;43.19;100191.59;4956620;28;6990;-74
2023/05/09 09:38:20;;;;;;;;;;;;;;;26.66;42.84;100190.53;4972153;28;6868;-73
2023/05/09 09:40:56;;;;;;;;;;;;;;;26.75;42.73;100188.56;4961985;28;6792;-73
2023/05/09 09:43:29;;;;;;;;;;;;;;;26.80;42.32;100191.09;4960629;28;6796;-73
2023/05/09 09:45:58;;;;;;;;;;;;;;;26.82;42.22;100189.28;4967759;28;6789;-76
2023/05/09 09:48:32;;;;;;;;;;;;;;;26.83;42.10;100184.88;4972217;28;6803;-74
2023/05/09 09:51:10;;;;;;;;;;;;;;;26.88;41.90;100177.78;4976045;28;6789;-75
2023/05/09 09:53:42;;;;;;;;;;;;;;;27.03;42.28;100177.41;4956525;28;6960;-74
2023/05/09 09:56:09;;;;;;;;;;;;;;;27.22;41.89;100169.06;4961385;28;7062;-74
2023/05/09 09:58:35;;;;;;;;;;;;;;;27.34;41.58;100162.63;4948415;28;7003;-74
2023/05/09 10:01:06;;;;;;;;;;;;;;;27.35;41.14;100160.88;4969861;28;7158;-73
2023/05/09 10:03:43;;;;;;;;;;;;;;;27.44;41.69;100156.22;4962384;28;7383;-75
2023/05/09 10:06:11;;;;;;;;;;;;;;;27.71;41.62;100150.28;4968052;28;6868;-74
2023/05/09 10:08:38;;;;;;;;;;;;;;;28.02;40.77;100138.94;4954150;28;6808;-75
2023/05/09 10:11:04;;;;;;;;;;;;;;;28.28;40.45;100139.94;4968014;28;7467;-74
2023/05/09 10:13:33;;;;;;;;;;;;;;;28.61;40.43;100138.94;4965447;28;6808;-73
2023/05/09 10:16:00;;;;;;;;;;;;;;;28.76;39.49;100138.47;4970231;28;7321;-74
2023/05/09 10:18:29;;;;;;;;;;;;;;;28.77;39.60;100134.91;4985102;28;6899;-73
2023/05/09 10:21:02;;;;;;;;;;;;;;;28.69;39.02;100137.81;4956888;28;6808;-73
2023/05/09 10:23:31;;;;;;;;;;;;;;;28.56;39.50;100133.81;4956244;28;7335;-75
2023/05/09 10:26:21;;;;;;;;;;;;;;;28.40;39.53;100126.41;4955656;28;7073;-74
2023/05/09 10:28:51;;;;;;;;;;;;;;;28.35;39.05;100128.31;4956511;28;6804;-76
2023/05/09 10:31:30;;;;;;;;;;;;;;;28.38;39.47;100124.72;4988155;28;6964;-76
2023/05/09 10:34:03;;;;;;;;;;;;;;;28.41;39.65;100124.63;4966132;28;7127;-75
2023/05/09 10:36:30;;;;;;;;;;;;;;;28.38;39.15;100115.03;4971233;28;6831;-73
2023/05/09 10:38:55;;;;;;;;;;;;;;;28.29;39.59;100110.03;4979702;28;7227;-73
2023/05/09 10:41:22;;;;;;;;;;;;;;;28.13;39.35;100113.13;4953260;28;7216;-74
2023/05/09 10:43:48;;;;;;;;;;;;;;;27.89;39.10;100112.06;4965292;28;6784;-73
2023/05/09 10:46:15;;;;;;;;;;;;;;;27.63;39.70;100110.19;4954086;28;6783;-73
2023/05/09 10:48:42;;;;;;;;;;;;;;;27.33;40.20;100104.78;4970083;28;7413;-75
2023/05/09 10:51:09;;;;;;;;;;;;;;;27.04;39.97;100107.28;4968671;28;7338;-73
2023/05/09 10:53:44;;;;;;;;;;;;;;;26.75;40.45;100108.84;4964578;28;7216;-74
2023/05/09 10:56:34;;;;;;;;;;;;;;;26.45;40.58;100101.63;4956979;28;7011;-73
2023/05/09 10:59:00;;;;;;;;;;;;;;;26.10;40.96;100102.38;4965376;28;7085;-74
2023/05/09 11:01:33;;;;;;;;;;;;;;;25.59;41.60;100113.03;4953952;28;8724;-74
2023/05/09 11:04:07;;;;;;;;;;;;;;;24.98;42.71;100109.69;4935345;28;7213;-74
2023/05/09 11:06:51;;;;;;;;;;;;;;;24.32;44.25;100100.16;4943529;28;7731;-74
2023/05/09 11:09:27;;;;;;;;;;;;;;;23.82;45.68;100107.72;4933892;28;6815;-77
2023/05/09 11:11:56;;;;;;;;;;;;;;;23.49;47.05;100100.22;4965602;28;8502;-74
2023/05/09 11:14:52;;;;;;;;;;;;;;;23.29;48.30;100103.03;4936861;28;8619;-73
2023/05/09 11:17:21;;;;;;;;;;;;;;;23.27;49.32;100102.13;4940320;28;6812;-76
2023/05/09 11:19:46;;;;;;;;;;;;;;;23.32;50.07;100094.28;4965592;28;8615;-74
2023/05/09 11:22:18;;;;;;;;;;;;;;;23.44;50.04;100092.41;4964196;28;7459;-76
2023/05/09 11:25:07;;;;;;;;;;;;;;;23.60;50.21;100083.53;4952134;28;7094;-75
2023/05/09 11:27:39;;;;;;;;;;;;;;;23.74;50.78;100081.66;4957019;28;6991;-76
2023/05/09 11:30:07;;;;;;;;;;;;;;;23.86;50.34;100081.50;4936542;28;6800;-73
2023/05/09 11:32:44;;;;;;;;;;;;;;;23.97;50.29;100081.38;4968847;28;7351;-73
2023/05/09 11:35:19;;;;;;;;;;;;;;;24.05;50.66;100078.69;4953568;28;6995;-74
2023/05/09 11:37:48;;;;;;;;;;;;;;;24.11;49.95;100072.50;4957270;28;8494;-74
2023/05/09 11:40:17;;;;;;;;;;;;;;;24.16;50.06;100075.94;4966432;28;6780;-74
2023/05/09 11:42:47;;;;;;;;;;;;;;;24.21;49.73;100068.00;4963154;28;6895;-75
2023/05/09 11:45:14;;;;;;;;;;;;;;;24.22;50.00;100067.13;4960669;28;6981;-76
2023/05/09 11:47:40;;;;;;;;;;;;;;;24.10;49.94;100065.53;4966403;28;6808;-78
2023/05/09 11:50:08;;;;;;;;;;;;;;;24.00;50.37;100070.84;4966250;28;6776;-76
2023/05/09 11:52:36;;;;;;;;;;;;;;;23.91;50.61;100070.97;4949937;28;7020;-76
2023/05/09 11:55:05;;;;;;;;;;;;;;;23.81;50.53;100058.88;4949851;28;6987;-75
2023/05/09 11:57:31;;;;;;;;;;;;;;;23.74;50.66;100062.47;4949658;28;7007;-77
2023/05/09 12:00:00;;;;;;;;;;;;;;;23.77;51.00;100051.97;4965330;28;7209;-76
2023/05/09 12:02:26;;;;;;;;;;;;;;;23.88;51.62;100054.44;4964305;28;6921;-75
2023/05/09 12:04:53;;;;;;;;;;;;;;;23.96;51.50;100048.25;4965291;28;7141;-75
2023/05/09 12:07:19;;;;;;;;;;;;;;;24.05;51.73;100041.19;4964325;28;6796;-78
2023/05/09 12:09:48;;;;;;;;;;;;;;;24.12;51.53;100042.81;4948791;28;7403;-76
2023/05/09 12:12:16;;;;;;;;;;;;;;;24.15;51.69;100045.41;4963932;28;6975;-76
2023/05/09 12:14:42;;;;;;;;;;;;;;;24.13;51.37;100049.78;4962134;28;6887;-75
2023/05/09 12:17:08;;;;;;;;;;;;;;;24.03;51.17;100042.91;4934099;28;6959;-75
2023/05/09 12:19:35;;;;;;;;;;;;;;;23.80;50.84;100033.63;4950101;28;6805;-75
2023/05/09 12:22:04;;;;;;;;;;;;;;;23.57;51.20;100042.63;4962760;28;7178;-75
2023/05/09 12:24:30;;;;;;;;;;;;;;;23.29;51.32;100038.53;4942778;28;7068;-75
2023/05/09 12:26:58;;;;;;;;;;;;;;;22.99;51.90;100031.84;4963910;28;6764;-78
2023/05/09 12:29:25;;;;;;;;;;;;;;;22.70;52.03;100038.19;4964789;28;6907;-78
2023/05/09 12:31:53;;;;;;;;;;;;;;;22.45;52.70;100033.09;4964834;28;6941;-76
2023/05/09 12:34:19;;;;;;;;;;;;;;;22.25;53.33;100033.22;4929437;28;7368;-75
2023/05/09 12:36:52;;;;;;;;;;;;;;;22.10;53.82;100034.19;4958133;28;6776;-77
2023/05/09 12:39:23;;;;;;;;;;;;;;;21.98;54.48;100025.56;4947860;28;7036;-75
2023/05/09 12:41:50;;;;;;;;;;;;;;;21.91;54.91;100029.06;4962913;28;7381;-76
2023/05/09 12:44:25;;;;;;;;;;;;;;;21.85;54.87;100027.34;4963862;28;7445;-78
2023/05/09 12:47:01;;;;;;;;;;;;;;;21.76;55.05;100020.44;4950502;28;7297;-78
2023/05/09 12:49:29;;;;;;;;;;;;;;;21.69;55.36;100023.09;4961957;28;8169;-77
2023/05/09 12:51:59;;;;;;;;;;;;;;;21.61;55.72;100015.25;4921827;28;7317;-78
2023/05/09 12:54:27;;;;;;;;;;;;;;;21.56;55.94;100019.63;4942186;28;6951;-78